Time;durP1;ratioP1;P1;durP2;ratioP2;P2;SDS_P1;SDS_P2;PMS_P1;PMS_P2;Temp;Humidity;BMP_temperature;BMP_pressure;BME280_temperature;BME280_humidity;BME280_pressure;Samples;Min_cycle;Max_cycle;Signal;HPM_P1;HPM_P2
2021/10/07 00:00:53;;;;;;;2.00;1.80;;;10.00;99.90;;;;;;6243839;22;20666;-90
2021/10/07 00:03:19;;;;;;;1.90;1.63;;;9.90;99.90;;;;;;6244900;22;20680;-91
2021/10/07 00:05:45;;;;;;;1.67;1.57;;;9.90;99.90;;;;;;6244881;22;20196;-91
2021/10/07 00:08:11;;;;;;;2.70;1.73;;;9.80;99.90;;;;;;6245216;22;20450;-90
2021/10/07 00:10:37;;;;;;;3.07;2.03;;;9.80;99.90;;;;;;6244899;22;20189;-91
2021/10/07 00:13:02;;;;;;;1.70;1.60;;;9.80;99.90;;;;;;6245013;22;20502;-91
2021/10/07 00:15:28;;;;;;;3.00;2.63;;;9.80;99.90;;;;;;6244766;22;20158;-92
2021/10/07 00:17:54;;;;;;;2.33;2.10;;;9.80;99.90;;;;;;6244557;22;20166;-91
2021/10/07 00:20:20;;;;;;;3.93;2.30;;;9.80;99.90;;;;;;6243582;22;20284;-91
2021/10/07 00:22:46;;;;;;;2.97;2.00;;;9.90;99.90;;;;;;6245369;22;20437;-91
2021/10/07 00:25:13;;;;;;;3.00;2.80;;;9.90;99.90;;;;;;6244295;22;20162;-91
2021/10/07 00:27:43;;;;;;;2.20;2.00;;;9.90;99.90;;;;;;6243937;22;20161;-91
2021/10/07 00:30:16;;;;;;;2.80;2.10;;;10.00;99.90;;;;;;6244340;22;20397;-91
2021/10/07 00:32:54;;;;;;;2.17;2.07;;;9.90;99.90;;;;;;6243040;22;20492;-90
2021/10/07 00:35:39;;;;;;;2.10;2.00;;;9.90;99.90;;;;;;6244576;22;20764;-90
2021/10/07 00:40:50;;;;;;;1.90;1.80;;;9.90;99.90;;;;;;6276524;22;20388;-90
2021/10/07 00:43:16;;;;;;;2.00;1.80;;;9.90;99.90;;;;;;6243355;22;20438;-91
2021/10/07 00:45:56;;;;;;;2.07;1.90;;;10.00;99.90;;;;;;6242966;22;20400;-90
2021/10/07 00:48:22;;;;;;;3.43;2.43;;;9.90;99.90;;;;;;6244478;22;20443;-90
2021/10/07 00:50:48;;;;;;;2.60;2.40;;;9.90;99.90;;;;;;6243807;22;20433;-90
2021/10/07 00:53:16;;;;;;;3.57;1.90;;;9.80;99.90;;;;;;6244224;22;20397;-91
2021/10/07 00:55:42;;;;;;;2.50;2.30;;;9.90;99.90;;;;;;6243368;22;20381;-90
2021/10/07 00:58:09;;;;;;;4.70;2.53;;;9.90;99.90;;;;;;6243497;22;20768;-91
2021/10/07 01:00:35;;;;;;;2.10;2.00;;;10.00;99.90;;;;;;6243126;22;20407;-90
2021/10/07 01:03:01;;;;;;;2.27;2.07;;;10.00;99.90;;;;;;6243467;22;20393;-91
2021/10/07 01:05:27;;;;;;;2.27;2.07;;;9.90;99.90;;;;;;6243318;22;20154;-90
2021/10/07 01:07:56;;;;;;;3.30;2.37;;;9.90;99.90;;;;;;6244129;22;20894;-91
2021/10/07 01:10:22;;;;;;;3.30;2.20;;;9.90;99.90;;;;;;6244316;22;20870;-91
2021/10/07 01:12:47;;;;;;;2.60;2.40;;;10.00;99.90;;;;;;6243116;22;20466;-91
2021/10/07 01:15:13;;;;;;;2.17;1.73;;;10.00;99.90;;;;;;6243923;22;20604;-91
2021/10/07 01:17:39;;;;;;;2.27;2.07;;;10.10;99.90;;;;;;6243830;22;20271;-89
2021/10/07 01:20:06;;;;;;;3.37;2.67;;;10.10;99.90;;;;;;6240740;22;20159;-90
2021/10/07 01:22:32;;;;;;;2.83;2.17;;;10.10;99.90;;;;;;6243891;22;20154;-91
2021/10/07 01:25:00;;;;;;;4.70;2.10;;;10.10;99.90;;;;;;6243017;22;20388;-91
2021/10/07 01:27:27;;;;;;;3.20;2.23;;;10.10;99.90;;;;;;6243720;22;20488;-91
2021/10/07 01:29:58;;;;;;;4.60;2.20;;;10.00;99.90;;;;;;6271230;22;20401;-90
2021/10/07 01:32:24;;;;;;;1.80;1.70;;;10.10;99.90;;;;;;6271660;22;20429;-91
2021/10/07 01:34:50;;;;;;;1.93;1.80;;;10.10;99.90;;;;;;6243102;22;20416;-90
2021/10/07 01:37:16;;;;;;;2.30;1.87;;;10.20;99.90;;;;;;6242973;22;20412;-91
2021/10/07 01:39:42;;;;;;;2.60;2.27;;;10.10;99.90;;;;;;6270090;22;20722;-91
2021/10/07 01:42:08;;;;;;;3.97;2.50;;;10.10;99.90;;;;;;6243730;22;20401;-90
2021/10/07 01:44:34;;;;;;;2.83;2.27;;;10.10;99.90;;;;;;6242726;22;20169;-90
2021/10/07 01:47:00;;;;;;;6.40;2.20;;;10.10;99.90;;;;;;6243381;22;20447;-90
2021/10/07 01:49:26;;;;;;;2.50;2.00;;;10.10;99.90;;;;;;6243928;22;20162;-90
2021/10/07 01:51:52;;;;;;;3.53;2.17;;;10.10;99.90;;;;;;6243846;22;20194;-90
2021/10/07 01:54:19;;;;;;;2.20;1.93;;;10.20;99.90;;;;;;6271591;22;20765;-91
2021/10/07 01:56:44;;;;;;;2.37;1.77;;;10.10;99.90;;;;;;6239932;22;20396;-90
2021/10/07 01:59:10;;;;;;;1.80;1.70;;;10.20;99.90;;;;;;6243729;22;20396;-91
2021/10/07 02:01:37;;;;;;;4.00;2.50;;;10.20;99.90;;;;;;6243790;22;20405;-91
2021/10/07 02:04:04;;;;;;;2.83;2.17;;;10.10;99.90;;;;;;6242330;22;20927;-91
2021/10/07 02:06:30;;;;;;;2.50;1.90;;;10.10;99.90;;;;;;6244075;22;20393;-91
2021/10/07 02:08:57;;;;;;;3.03;2.00;;;10.10;99.90;;;;;;6247354;22;20424;-90
2021/10/07 02:11:22;;;;;;;2.00;1.90;;;10.20;99.90;;;;;;6251112;22;20494;-90
2021/10/07 02:13:51;;;;;;;5.77;2.23;;;10.20;99.90;;;;;;6245942;22;20392;-91
2021/10/07 02:16:17;;;;;;;2.23;2.03;;;10.20;99.90;;;;;;6245187;22;20403;-91
2021/10/07 02:18:48;;;;;;;2.60;2.07;;;10.10;99.90;;;;;;6245683;22;20467;-91
2021/10/07 02:21:14;;;;;;;2.20;2.10;;;10.10;99.90;;;;;;6244110;22;20747;-91
2021/10/07 02:23:39;;;;;;;3.13;2.00;;;10.10;99.90;;;;;;6243592;22;20393;-90
2021/10/07 02:26:05;;;;;;;3.00;2.43;;;10.10;99.90;;;;;;6245216;22;20166;-90
2021/10/07 02:28:31;;;;;;;2.90;2.20;;;10.10;99.90;;;;;;6245164;22;20166;-90
2021/10/07 02:30:58;;;;;;;3.17;2.23;;;10.20;99.90;;;;;;6245703;22;20247;-90
2021/10/07 02:33:24;;;;;;;2.60;2.40;;;10.20;99.90;;;;;;6245953;22;20166;-91
2021/10/07 02:35:50;;;;;;;2.67;2.57;;;10.20;99.90;;;;;;6245310;22;20408;-90
2021/10/07 02:38:15;;;;;;;2.30;2.20;;;10.20;99.90;;;;;;6246066;22;20388;-89
2021/10/07 02:40:41;;;;;;;3.77;1.83;;;10.10;99.90;;;;;;6245726;22;20162;-91
2021/10/07 02:43:07;;;;;;;2.20;2.10;;;10.10;99.90;;;;;;6245996;22;20181;-90
2021/10/07 02:45:32;;;;;;;2.30;2.00;;;10.10;99.90;;;;;;6245164;22;20186;-90
2021/10/07 02:47:58;;;;;;;4.17;2.47;;;10.00;99.90;;;;;;6245725;22;20166;-91
2021/10/07 02:50:27;;;;;;;2.97;2.03;;;10.10;99.90;;;;;;6245894;22;20236;-91
2021/10/07 02:52:52;;;;;;;2.57;1.83;;;10.10;99.90;;;;;;6245592;22;20174;-91
2021/10/07 02:55:18;;;;;;;2.40;2.20;;;10.00;99.90;;;;;;6245371;22;20454;-90
2021/10/07 02:57:45;;;;;;;3.00;2.20;;;10.00;99.90;;;;;;6246042;22;20166;-91
2021/10/07 03:00:13;;;;;;;2.93;2.10;;;10.00;99.90;;;;;;6245250;22;20186;-91
2021/10/07 03:02:38;;;;;;;2.50;2.27;;;10.10;99.90;;;;;;6246379;22;20409;-91
2021/10/07 03:05:08;;;;;;;3.43;2.50;;;10.10;99.90;;;;;;6243673;22;20897;-91
2021/10/07 03:07:34;;;;;;;2.70;2.50;;;10.10;99.90;;;;;;6244892;22;20154;-91
2021/10/07 03:10:00;;;;;;;2.87;2.60;;;10.10;99.90;;;;;;6245963;22;20432;-90
2021/10/07 03:12:25;;;;;;;2.97;2.03;;;10.00;99.90;;;;;;6245248;22;20440;-91
2021/10/07 03:14:54;;;;;;;2.90;2.20;;;10.00;99.90;;;;;;6243838;22;20434;-91
2021/10/07 03:17:22;;;;;;;2.23;2.07;;;10.00;99.90;;;;;;6246249;22;20255;-90
2021/10/07 03:19:48;;;;;;;3.60;1.77;;;10.00;99.90;;;;;;6245308;22;20389;-90
2021/10/07 03:22:15;;;;;;;1.73;1.63;;;10.00;99.90;;;;;;6244586;22;20480;-91
2021/10/07 03:24:41;;;;;;;3.57;2.73;;;10.10;99.90;;;;;;6245165;22;20221;-91
2021/10/07 03:27:07;;;;;;;2.63;2.43;;;10.10;99.90;;;;;;6245331;22;20397;-91
2021/10/07 03:29:33;;;;;;;2.37;2.17;;;10.10;99.90;;;;;;6246020;22;20870;-91
2021/10/07 03:31:58;;;;;;;2.50;1.80;;;10.20;99.90;;;;;;6272664;22;20193;-91
2021/10/07 03:34:24;;;;;;;2.37;2.17;;;10.20;99.90;;;;;;6246133;22;20625;-92
2021/10/07 03:36:50;;;;;;;2.40;1.70;;;10.20;99.90;;;;;;6245996;22;20166;-92
2021/10/07 03:39:16;;;;;;;4.63;2.30;;;10.20;99.90;;;;;;6253429;22;20162;-92
2021/10/07 03:41:42;;;;;;;5.23;2.30;;;10.30;99.90;;;;;;6253193;22;20258;-92
2021/10/07 03:44:07;;;;;;;3.40;2.40;;;10.20;99.90;;;;;;6246920;22;20899;-93
2021/10/07 03:46:33;;;;;;;1.87;1.77;;;10.20;99.90;;;;;;6246161;22;20193;-93
2021/10/07 03:48:59;;;;;;;2.20;2.00;;;10.20;99.90;;;;;;6246404;22;20162;-93
2021/10/07 03:51:25;;;;;;;2.30;2.10;;;10.20;99.90;;;;;;6246358;22;20231;-93
2021/10/07 03:53:51;;;;;;;3.57;2.20;;;10.20;99.90;;;;;;6245876;22;20393;-93
2021/10/07 03:56:17;;;;;;;3.67;2.10;;;10.20;99.90;;;;;;6243701;22;20616;-92
2021/10/07 03:58:42;;;;;;;3.10;2.30;;;10.20;99.90;;;;;;6246722;22;20534;-92
2021/10/07 04:01:08;;;;;;;2.50;2.23;;;10.20;99.90;;;;;;6233709;23;20900;-92
2021/10/07 04:03:36;;;;;;;3.33;3.07;;;10.30;99.90;;;;;;6215429;23;20494;-92
2021/10/07 04:06:02;;;;;;;3.17;2.20;;;10.30;99.90;;;;;;6240027;23;20398;-92
2021/10/07 04:08:28;;;;;;;3.60;2.60;;;10.30;99.90;;;;;;6215431;23;20394;-92
2021/10/07 04:10:53;;;;;;;4.30;2.83;;;10.20;99.90;;;;;;6215653;23;20190;-92
2021/10/07 04:13:24;;;;;;;2.60;2.40;;;10.20;99.90;;;;;;6215260;23;20171;-92
2021/10/07 04:15:51;;;;;;;3.83;2.90;;;10.20;99.90;;;;;;6215593;23;20613;-92
2021/10/07 04:18:18;;;;;;;3.10;2.80;;;10.20;99.90;;;;;;6215382;23;20394;-93
2021/10/07 04:20:45;;;;;;;5.10;3.40;;;10.20;99.90;;;;;;6190844;23;20398;-93
2021/10/07 04:23:15;;;;;;;4.57;2.80;;;10.20;99.90;;;;;;6215526;23;20405;-92
2021/10/07 04:25:41;;;;;;;3.30;2.53;;;10.10;99.90;;;;;;6215588;23;20382;-93
2021/10/07 04:28:07;;;;;;;2.90;2.40;;;10.20;99.90;;;;;;6215360;23;20723;-92
2021/10/07 04:30:37;;;;;;;3.10;2.80;;;10.20;99.90;;;;;;6215651;23;20401;-93
2021/10/07 04:33:09;;;;;;;3.10;2.63;;;10.20;99.90;;;;;;6214559;23;20194;-92
2021/10/07 04:35:36;;;;;;;2.67;2.47;;;10.20;99.90;;;;;;6215335;23;20836;-92
2021/10/07 04:38:03;;;;;;;3.60;2.70;;;10.30;99.90;;;;;;6215979;23;20390;-92
2021/10/07 04:40:29;;;;;;;4.70;3.03;;;10.20;99.90;;;;;;6215130;23;20433;-92
2021/10/07 04:42:55;;;;;;;3.30;3.10;;;10.20;99.90;;;;;;6215656;23;20386;-92
2021/10/07 04:45:21;;;;;;;4.10;3.43;;;10.20;99.90;;;;;;6215786;23;20163;-92
2021/10/07 04:47:53;;;;;;;2.83;2.63;;;10.20;99.90;;;;;;6216194;23;20533;-93
2021/10/07 04:50:25;;;;;;;7.37;6.30;;;10.20;99.90;;;;;;6215593;23;20736;-92
2021/10/07 04:52:51;;;;;;;4.10;3.70;;;10.30;99.90;;;;;;6215185;23;20460;-92
2021/10/07 04:55:16;;;;;;;9.87;7.00;;;10.30;99.90;;;;;;6215111;23;20448;-92
2021/10/07 04:57:45;;;;;;;4.37;3.97;;;10.40;99.90;;;;;;6215344;23;20249;-92
2021/10/07 05:00:11;;;;;;;3.50;2.70;;;10.40;99.90;;;;;;6215155;23;20420;-90
2021/10/07 05:02:38;;;;;;;4.10;2.90;;;10.30;99.90;;;;;;6244608;22;20188;-92
2021/10/07 05:05:06;;;;;;;3.50;3.13;;;10.30;99.90;;;;;;6244642;22;20756;-91
2021/10/07 05:07:35;;;;;;;3.07;2.77;;;10.30;99.90;;;;;;6245293;22;20424;-92
2021/10/07 05:10:01;;;;;;;7.17;3.57;;;10.30;99.90;;;;;;6246090;22;20400;-91
2021/10/07 05:12:27;;;;;;;4.53;3.00;;;10.30;99.90;;;;;;6243998;22;20822;-91
2021/10/07 05:14:53;;;;;;;2.50;2.30;;;10.30;99.90;;;;;;6244174;22;20397;-91
2021/10/07 05:17:18;;;;;;;3.10;2.53;;;10.20;99.90;;;;;;6244843;22;20168;-93
2021/10/07 05:19:44;;;;;;;2.90;2.70;;;10.20;99.90;;;;;;6243408;22;20158;-91
2021/10/07 05:22:10;;;;;;;4.13;2.87;;;10.30;99.90;;;;;;6243776;22;20659;-92
2021/10/07 05:24:35;;;;;;;2.73;2.50;;;10.20;99.90;;;;;;6244283;22;20540;-92
2021/10/07 05:27:01;;;;;;;3.03;2.73;;;10.30;99.90;;;;;;6244112;22;20372;-93
2021/10/07 05:29:27;;;;;;;3.80;2.57;;;10.30;99.90;;;;;;6244814;22;20181;-93
2021/10/07 05:31:52;;;;;;;2.90;2.70;;;10.30;99.90;;;;;;6245685;22;20193;-93
2021/10/07 05:34:19;;;;;;;4.53;3.20;;;10.20;99.90;;;;;;6244786;22;20241;-93
2021/10/07 05:36:45;;;;;;;3.00;2.60;;;10.20;99.90;;;;;;6244485;22;20174;-93
2021/10/07 05:39:11;;;;;;;2.40;2.30;;;10.20;99.90;;;;;;6245282;22;20392;-93
2021/10/07 05:41:42;;;;;;;2.80;2.60;;;10.20;99.90;;;;;;6245596;22;20768;-93
2021/10/07 05:44:11;;;;;;;2.63;2.20;;;10.20;99.90;;;;;;6244061;22;20471;-92
2021/10/07 05:46:43;;;;;;;2.90;2.30;;;10.20;99.90;;;;;;6244775;22;20423;-92
2021/10/07 05:49:10;;;;;;;2.40;2.10;;;10.20;99.90;;;;;;6245058;22;20426;-93
2021/10/07 05:51:35;;;;;;;2.30;2.10;;;10.20;99.90;;;;;;6245304;22;20445;-92
2021/10/07 05:54:03;;;;;;;3.80;2.50;;;10.30;99.90;;;;;;6245633;22;20400;-94
2021/10/07 05:56:32;;;;;;;3.90;2.63;;;10.30;99.90;;;;;;6244841;22;20190;-94
2021/10/07 06:01:34;;;;;;;4.40;3.10;;;10.30;99.90;;;;;;6271780;22;20566;-93
2021/10/07 06:04:02;;;;;;;3.30;3.10;;;10.20;99.90;;;;;;6245573;22;20389;-92
2021/10/07 06:06:29;;;;;;;3.03;2.73;;;10.20;99.90;;;;;;6243938;22;20457;-93
2021/10/07 06:08:54;;;;;;;2.87;2.50;;;10.20;99.90;;;;;;6245981;22;20797;-93
2021/10/07 06:11:32;;;;;;;3.17;2.70;;;10.30;99.90;;;;;;6245098;22;20472;-93
2021/10/07 06:13:57;;;;;;;2.63;2.40;;;10.40;99.90;;;;;;6244851;22;20182;-93
2021/10/07 06:16:26;;;;;;;3.80;3.40;;;10.30;99.90;;;;;;6245469;22;20879;-93
2021/10/07 06:18:52;;;;;;;2.83;2.63;;;10.30;99.90;;;;;;6271543;22;20241;-92
2021/10/07 06:21:18;;;;;;;3.90;3.43;;;10.30;99.90;;;;;;6245527;22;20440;-93
2021/10/07 06:23:44;;;;;;;5.63;3.30;;;10.40;99.90;;;;;;6245107;22;20158;-92
2021/10/07 06:26:10;;;;;;;3.00;2.80;;;10.40;99.90;;;;;;6245210;22;20729;-93
2021/10/07 06:28:36;;;;;;;3.03;2.73;;;10.50;99.90;;;;;;6244474;22;20428;-92
2021/10/07 06:31:03;;;;;;;2.90;2.70;;;10.50;99.90;;;;;;6245612;22;20910;-94
2021/10/07 06:33:30;;;;;;;3.60;3.30;;;10.60;99.90;;;;;;6244913;22;20162;-94
2021/10/07 06:35:58;;;;;;;3.97;3.67;;;10.60;99.90;;;;;;6243747;22;20411;-93
2021/10/07 06:38:26;;;;;;;4.47;4.13;;;10.60;99.90;;;;;;6245216;22;20393;-92
2021/10/07 06:40:52;;;;;;;4.00;3.60;;;10.60;99.90;;;;;;6245197;22;20405;-93
2021/10/07 06:43:18;;;;;;;5.67;3.30;;;10.60;99.90;;;;;;6245452;22;20404;-93
2021/10/07 06:45:43;;;;;;;3.73;2.97;;;10.50;99.90;;;;;;6245370;22;20392;-94
2021/10/07 06:48:10;;;;;;;3.57;2.60;;;10.60;99.90;;;;;;6245886;22;20288;-93
2021/10/07 06:50:42;;;;;;;2.80;2.60;;;10.80;99.90;;;;;;6244069;22;21177;-93
2021/10/07 06:53:11;;;;;;;5.20;3.20;;;11.00;99.90;;;;;;6245008;22;20431;-94
2021/10/07 06:55:38;;;;;;;4.00;2.40;;;11.00;99.90;;;;;;6244909;22;20403;-92
2021/10/07 06:58:05;;;;;;;4.70;2.70;;;11.10;99.90;;;;;;6246662;22;20392;-93
2021/10/07 07:00:31;;;;;;;2.90;2.40;;;11.10;99.90;;;;;;6247065;22;20527;-93
2021/10/07 07:02:58;;;;;;;3.90;2.93;;;11.00;99.90;;;;;;6247087;22;20393;-93
2021/10/07 07:05:25;;;;;;;4.17;3.23;;;11.00;99.90;;;;;;6246900;22;20240;-93
2021/10/07 07:07:51;;;;;;;3.37;3.07;;;10.90;99.90;;;;;;6247277;22;20453;-93
2021/10/07 07:10:17;;;;;;;4.20;3.80;;;10.90;99.90;;;;;;6246829;22;20466;-93
2021/10/07 07:12:51;;;;;;;4.10;3.60;;;11.00;99.90;;;;;;6247199;22;20454;-93
2021/10/07 07:15:18;;;;;;;4.13;3.80;;;10.90;99.90;;;;;;6246467;22;20389;-94
2021/10/07 07:17:44;;;;;;;5.40;3.30;;;11.00;99.90;;;;;;6246844;22;20432;-93
2021/10/07 07:20:10;;;;;;;5.10;3.70;;;11.10;99.90;;;;;;6247063;22;20396;-94
2021/10/07 07:22:41;;;;;;;4.13;3.20;;;11.20;99.90;;;;;;6246236;22;20165;-93
2021/10/07 07:25:08;;;;;;;3.97;3.57;;;11.30;99.90;;;;;;6246871;22;20389;-93
2021/10/07 07:27:34;;;;;;;3.87;3.47;;;11.30;99.90;;;;;;6246884;22;20264;-93
2021/10/07 07:30:01;;;;;;;4.10;3.73;;;11.30;99.90;;;;;;6247490;22;20397;-94
2021/10/07 07:32:27;;;;;;;4.27;3.87;;;11.40;99.90;;;;;;6247183;22;20440;-93
2021/10/07 07:34:52;;;;;;;5.73;3.50;;;11.30;99.90;;;;;;6247195;22;20485;-93
2021/10/07 07:37:18;;;;;;;4.13;3.40;;;11.40;99.90;;;;;;6246992;22;20173;-93
2021/10/07 07:39:44;;;;;;;4.70;4.30;;;11.50;99.90;;;;;;6247667;22;20181;-93
2021/10/07 07:42:10;;;;;;;4.80;4.50;;;11.60;99.90;;;;;;6244007;22;20191;-93
2021/10/07 07:44:36;;;;;;;6.90;5.17;;;11.60;99.90;;;;;;6247003;22;20352;-94
2021/10/07 07:47:02;;;;;;;4.80;4.40;;;11.50;99.90;;;;;;6243245;22;20204;-93
2021/10/07 07:49:28;;;;;;;3.90;3.60;;;11.50;99.90;;;;;;6246599;22;20393;-93
2021/10/07 07:51:53;;;;;;;4.40;3.97;;;11.50;99.90;;;;;;6245650;22;20449;-93
2021/10/07 07:54:19;;;;;;;4.90;3.50;;;11.60;99.90;;;;;;6246045;22;20600;-94
2021/10/07 07:56:45;;;;;;;4.53;3.50;;;11.70;99.90;;;;;;6246438;22;20973;-93
2021/10/07 07:59:11;;;;;;;5.00;3.60;;;11.90;99.90;;;;;;6246382;22;20165;-93
2021/10/07 08:01:37;;;;;;;4.60;4.13;;;12.00;99.90;;;;;;6246453;22;20291;-92
2021/10/07 08:04:07;;;;;;;6.07;5.10;;;12.20;99.90;;;;;;6246136;22;20165;-93
2021/10/07 08:06:36;;;;;;;5.03;4.50;;;12.20;99.90;;;;;;6247102;22;20443;-93
2021/10/07 08:09:04;;;;;;;5.30;4.80;;;12.30;99.90;;;;;;6246322;22;20385;-93
2021/10/07 08:11:30;;;;;;;6.23;5.53;;;12.30;99.90;;;;;;6247275;22;20451;-94
2021/10/07 08:13:58;;;;;;;7.27;6.67;;;12.60;99.90;;;;;;6247249;22;20412;-93
2021/10/07 08:16:29;;;;;;;6.10;5.57;;;12.70;99.90;;;;;;6246342;22;20909;-93
2021/10/07 08:18:54;;;;;;;6.70;5.43;;;13.00;99.90;;;;;;6245402;22;20411;-93
2021/10/07 08:21:20;;;;;;;5.70;5.20;;;13.20;99.90;;;;;;6245580;22;20863;-92
2021/10/07 08:23:48;;;;;;;7.50;5.37;;;13.00;99.90;;;;;;6246696;22;20158;-93
2021/10/07 08:26:14;;;;;;;6.50;5.43;;;13.00;99.90;;;;;;6246051;22;20162;-93
2021/10/07 08:28:40;;;;;;;5.63;5.23;;;13.00;99.90;;;;;;6246636;22;20765;-93
2021/10/07 08:31:06;;;;;;;4.80;4.30;;;13.00;99.90;;;;;;6246383;22;20437;-92
2021/10/07 08:33:31;;;;;;;7.43;6.73;;;13.00;99.90;;;;;;6273225;22;20231;-90
2021/10/07 08:35:57;;;;;;;6.37;5.53;;;13.00;99.90;;;;;;6245725;22;20166;-94
2021/10/07 08:38:26;;;;;;;7.43;5.47;;;13.10;99.90;;;;;;6246773;22;20245;-93
2021/10/07 08:41:03;;;;;;;5.63;5.03;;;13.10;99.90;;;;;;6273242;22;20157;-96
2021/10/07 08:43:29;;;;;;;5.80;5.40;;;13.30;99.90;;;;;;6247321;22;20451;-94
2021/10/07 08:45:56;;;;;;;5.93;5.43;;;13.30;99.90;;;;;;6246555;22;20396;-94
2021/10/07 08:48:22;;;;;;;5.83;5.27;;;13.40;99.90;;;;;;6246380;22;20635;-93
2021/10/07 08:50:58;;;;;;;4.73;4.33;;;13.50;99.90;;;;;;6246295;22;20389;-93
2021/10/07 08:53:24;;;;;;;5.70;5.20;;;13.70;99.90;;;;;;6245130;22;20516;-92
2021/10/07 08:55:50;;;;;;;8.07;7.37;;;13.90;99.90;;;;;;6244399;22;20401;-93
2021/10/07 08:58:16;;;;;;;9.03;8.20;;;13.60;99.90;;;;;;6244933;22;20777;-92
2021/10/07 09:00:41;;;;;;;7.20;5.90;;;13.10;99.90;;;;;;6244089;22;20171;-92
2021/10/07 09:03:21;;;;;;;7.10;6.50;;;13.00;99.90;;;;;;6245043;22;20166;-92
2021/10/07 09:05:48;;;;;;;8.00;6.90;;;13.00;99.90;;;;;;6244414;22;20283;-92
2021/10/07 09:08:15;;;;;;;9.03;8.17;;;13.00;99.90;;;;;;6244357;22;20478;-92
2021/10/07 09:10:51;;;;;;;9.13;8.23;;;12.80;99.90;;;;;;6244015;22;20385;-92
2021/10/07 09:13:22;;;;;;;8.90;8.10;;;12.60;99.90;;;;;;6244387;22;20400;-93
2021/10/07 09:15:51;;;;;;;9.30;8.40;;;12.60;99.90;;;;;;6244149;22;20389;-91
2021/10/07 09:18:18;;;;;;;8.67;7.90;;;12.70;99.90;;;;;;6242865;22;20395;-92
2021/10/07 09:21:04;;;;;;;8.30;6.50;;;12.90;99.90;;;;;;6243352;22;20381;-92
2021/10/07 09:23:31;;;;;;;8.33;7.30;;;13.00;99.90;;;;;;6244157;22;20809;-91
2021/10/07 09:26:07;;;;;;;10.17;8.33;;;13.10;99.90;;;;;;6267847;22;20384;-90
2021/10/07 09:28:50;;;;;;;8.30;7.37;;;13.00;99.90;;;;;;6241570;22;20480;-90
2021/10/07 09:31:30;;;;;;;8.73;7.83;;;13.00;99.90;;;;;;6241617;22;20440;-90
2021/10/07 09:34:01;;;;;;;8.30;7.50;;;12.90;99.90;;;;;;6243337;22;20412;-90
2021/10/07 09:36:28;;;;;;;6.90;6.20;;;13.00;99.90;;;;;;6243285;22;20431;-91
2021/10/07 09:38:55;;;;;;;8.07;6.97;;;13.30;99.90;;;;;;6248943;22;20471;-90
2021/10/07 09:41:29;;;;;;;10.27;7.83;;;13.40;99.90;;;;;;6249317;22;20401;-91
2021/10/07 09:44:06;;;;;;;8.37;7.40;;;13.40;99.90;;;;;;6243117;22;20765;-90
2021/10/07 09:46:45;;;;;;;8.97;8.17;;;13.50;99.90;;;;;;6242696;22;20491;-91
2021/10/07 09:49:16;;;;;;;7.97;6.93;;;13.20;99.90;;;;;;6243535;22;20392;-91
2021/10/07 09:51:51;;;;;;;9.50;8.30;;;13.40;99.90;;;;;;6243163;22;20440;-91
2021/10/07 09:54:30;;;;;;;10.00;9.00;;;13.30;99.90;;;;;;6242356;22;20404;-92
2021/10/07 09:56:58;;;;;;;8.97;8.07;;;13.40;99.90;;;;;;6242502;22;20938;-91
2021/10/07 09:59:33;;;;;;;10.27;7.83;;;13.20;99.90;;;;;;6243907;22;20460;-92
2021/10/07 10:01:59;;;;;;;9.30;8.40;;;13.40;99.90;;;;;;6241246;22;20730;-92
2021/10/07 10:04:27;;;;;;;8.47;7.77;;;13.50;99.90;;;;;;6243587;22;20397;-91
2021/10/07 10:06:53;;;;;;;8.27;7.47;;;13.80;99.90;;;;;;6243475;22;20383;-91
2021/10/07 10:09:24;;;;;;;8.60;7.80;;;14.30;99.90;;;;;;6243291;22;20424;-91
2021/10/07 10:11:50;;;;;;;8.93;8.13;;;14.60;99.90;;;;;;6243389;22;20697;-91
2021/10/07 10:14:19;;;;;;;8.17;7.50;;;14.80;99.90;;;;;;6244704;22;20454;-92
2021/10/07 10:16:45;;;;;;;7.40;6.70;;;14.70;99.90;;;;;;6244602;22;20404;-92
2021/10/07 10:19:12;;;;;;;7.90;7.20;;;15.00;99.90;;;;;;6243425;22;20744;-92
2021/10/07 10:21:40;;;;;;;7.33;6.73;;;14.80;99.90;;;;;;6243495;22;20404;-92
2021/10/07 10:24:09;;;;;;;7.23;6.63;;;14.60;99.90;;;;;;6243379;22;20396;-90
2021/10/07 10:26:39;;;;;;;7.73;6.93;;;14.40;99.90;;;;;;6243272;22;20393;-89
2021/10/07 10:29:19;;;;;;;8.10;7.37;;;14.20;99.90;;;;;;6242639;22;20396;-90
2021/10/07 10:31:49;;;;;;;6.97;6.40;;;14.30;99.90;;;;;;6244847;22;20437;-90
2021/10/07 10:34:17;;;;;;;7.17;6.57;;;14.50;99.90;;;;;;6248821;22;20384;-91
2021/10/07 10:37:10;;;;;;;6.57;6.07;;;14.70;99.90;;;;;;6249077;22;20709;-90
2021/10/07 10:39:38;;;;;;;7.80;7.10;;;14.80;99.90;;;;;;6243891;22;20404;-90
2021/10/07 10:42:17;;;;;;;7.77;5.97;;;14.80;99.90;;;;;;6273925;22;20778;-91
2021/10/07 10:44:46;;;;;;;8.47;7.50;;;14.80;99.90;;;;;;6250084;22;20407;-91
2021/10/07 10:47:11;;;;;;;8.93;8.03;;;14.50;99.90;;;;;;6246506;22;20401;-91
2021/10/07 10:49:40;;;;;;;7.47;6.87;;;14.40;99.90;;;;;;6246959;22;20397;-91
2021/10/07 10:52:37;;;;;;;8.20;7.50;;;14.10;99.90;;;;;;6247959;22;20247;-91
2021/10/07 10:55:11;;;;;;;7.60;6.80;;;14.40;99.90;;;;;;6246144;22;20393;-90
2021/10/07 10:57:59;;;;;;;6.50;6.00;;;14.80;99.90;;;;;;6246253;22;20715;-89
2021/10/07 11:00:30;;;;;;;7.23;6.53;;;15.20;99.90;;;;;;6246516;22;20396;-90
2021/10/07 11:03:08;;;;;;;7.37;6.63;;;15.30;99.90;;;;;;6248283;22;20388;-91
2021/10/07 11:05:58;;;;;;;6.50;5.87;;;15.00;99.90;;;;;;6247058;22;20397;-92
2021/10/07 11:08:25;;;;;;;6.27;5.77;;;14.80;99.90;;;;;;6253037;22;20397;-91
2021/10/07 11:10:52;;;;;;;6.60;6.00;;;14.70;99.90;;;;;;6256662;22;20836;-91
2021/10/07 11:13:25;;;;;;;6.13;5.50;;;14.50;99.90;;;;;;6248438;22;20393;-90
2021/10/07 11:15:56;;;;;;;4.70;4.30;;;14.40;99.90;;;;;;6246904;22;20427;-88
2021/10/07 11:18:35;;;;;;;6.07;5.50;;;14.20;99.90;;;;;;6244610;22;20393;-90
2021/10/07 11:21:22;;;;;;;6.80;6.10;;;14.20;99.90;;;;;;6247325;22;20385;-91
2021/10/07 11:23:52;;;;;;;6.50;6.00;;;14.20;99.90;;;;;;6247836;22;20393;-90
2021/10/07 11:26:25;;;;;;;7.00;6.40;;;14.10;99.90;;;;;;6244603;22;20452;-90
2021/10/07 11:28:51;;;;;;;6.47;5.97;;;14.10;99.90;;;;;;6245156;22;22041;-88
2021/10/07 11:31:29;;;;;;;5.73;5.23;;;14.30;99.90;;;;;;6243958;22;20444;-89
2021/10/07 11:34:06;;;;;;;5.70;5.20;;;14.40;99.90;;;;;;6240547;22;20907;-89
2021/10/07 11:36:32;;;;;;;7.40;6.73;;;14.70;99.90;;;;;;6245110;22;20483;-91
2021/10/07 11:38:59;;;;;;;5.90;5.30;;;15.00;99.90;;;;;;6254642;22;20891;-91
2021/10/07 11:41:34;;;;;;;6.03;5.53;;;15.10;99.90;;;;;;6248780;22;20390;-90
2021/10/07 11:44:05;;;;;;;5.30;4.90;;;15.20;99.90;;;;;;6244882;22;20770;-90
2021/10/07 11:46:35;;;;;;;8.03;5.20;;;15.20;99.90;;;;;;6246144;22;20691;-91
2021/10/07 11:49:01;;;;;;;6.20;4.80;;;15.30;99.90;;;;;;6253747;22;20392;-92
2021/10/07 11:51:29;;;;;;;4.80;4.40;;;15.50;99.90;;;;;;6246745;22;20444;-92
2021/10/07 11:54:02;;;;;;;5.10;4.70;;;15.70;99.90;;;;;;6246111;22;20169;-92
2021/10/07 11:56:28;;;;;;;5.20;4.70;;;15.90;99.90;;;;;;6246845;22;20408;-91
2021/10/07 11:59:00;;;;;;;5.17;4.70;;;15.90;99.90;;;;;;6245088;22;20385;-91
2021/10/07 12:01:36;;;;;;;6.03;5.37;;;15.60;99.90;;;;;;6245200;22;20420;-92
2021/10/07 12:04:05;;;;;;;6.23;5.10;;;15.70;99.90;;;;;;6244534;22;20495;-93
2021/10/07 12:06:33;;;;;;;7.10;5.47;;;15.80;99.90;;;;;;6245669;22;20472;-90
2021/10/07 12:08:59;;;;;;;5.83;5.20;;;15.90;99.90;;;;;;6244908;22;20393;-91
2021/10/07 12:11:26;;;;;;;4.80;4.40;;;16.20;99.90;;;;;;6244709;22;20436;-91
2021/10/07 12:13:56;;;;;;;4.63;4.23;;;16.50;99.90;;;;;;6243925;22;20170;-92
2021/10/07 12:16:23;;;;;;;4.23;3.83;;;16.60;99.90;;;;;;6244506;22;20500;-92
2021/10/07 12:19:00;;;;;;;4.23;3.93;;;17.30;99.90;;;;;;6245017;22;20397;-92
2021/10/07 12:21:30;;;;;;;4.43;4.00;;;17.00;99.90;;;;;;6246203;22;20403;-91
2021/10/07 12:24:10;;;;;;;4.27;3.50;;;17.10;99.90;;;;;;6244167;22;20392;-92
2021/10/07 12:26:40;;;;;;;3.33;3.10;;;17.00;99.90;;;;;;6243369;22;20396;-91
2021/10/07 12:29:15;;;;;;;5.13;4.03;;;17.00;99.90;;;;;;6244868;22;20439;-92
2021/10/07 12:32:02;;;;;;;9.40;8.63;;;16.90;99.90;;;;;;6244119;22;20450;-92
2021/10/07 12:34:34;;;;;;;4.57;4.17;;;16.10;99.90;;;;;;6245243;22;20907;-92
2021/10/07 12:37:01;;;;;;;4.03;3.70;;;15.80;99.90;;;;;;6244855;22;20400;-93
2021/10/07 12:39:51;;;;;;;3.50;3.30;;;15.80;99.90;;;;;;6257118;22;20460;-93
2021/10/07 12:42:23;;;;;;;2.83;2.63;;;15.90;99.90;;;;;;6267795;22;20397;-94
2021/10/07 12:45:03;;;;;;;4.57;3.20;;;16.20;99.90;;;;;;6249626;22;20388;-94
2021/10/07 12:47:34;;;;;;;4.33;4.00;;;16.20;99.90;;;;;;6246688;22;20385;-93
2021/10/07 12:50:09;;;;;;;3.63;3.40;;;16.00;99.90;;;;;;6244055;22;20401;-94
2021/10/07 12:52:40;;;;;;;3.40;3.20;;;15.60;99.90;;;;;;6244609;22;20500;-94
2021/10/07 12:55:09;;;;;;;3.20;3.00;;;15.50;99.90;;;;;;6244470;22;20396;-93
2021/10/07 12:57:47;;;;;;;3.50;3.20;;;15.40;99.90;;;;;;6243884;22;20401;-93
2021/10/07 13:00:32;;;;;;;3.80;3.47;;;15.20;99.90;;;;;;6244638;22;20479;-90